createdAt,value
2022-12-17T00:02:14.000Z,-0.90
2022-12-17T00:04:59.394Z,-0.90
2022-12-17T00:07:44.677Z,-0.80
2022-12-17T00:10:30.138Z,-0.80
2022-12-17T00:13:15.460Z,-0.80
2022-12-17T00:16:00.878Z,-0.80
2022-12-17T00:18:46.334Z,-0.80
2022-12-17T00:21:31.695Z,-0.80
2022-12-17T00:24:17.107Z,-0.80
2022-12-17T00:27:02.567Z,-0.80
2022-12-17T00:29:47.933Z,-0.80
2022-12-17T00:32:33.351Z,-0.80
2022-12-17T00:35:18.778Z,-1.00
2022-12-17T00:38:06.637Z,-0.80
2022-12-17T00:40:52.018Z,-0.80
2022-12-17T00:43:37.597Z,-0.80
2022-12-17T00:46:23.560Z,-0.70
2022-12-17T00:49:08.834Z,-0.70
2022-12-17T00:51:54.050Z,-0.80
2022-12-17T00:54:39.493Z,-0.80
2022-12-17T00:57:24.917Z,-0.80
2022-12-17T01:00:10.343Z,-0.70
2022-12-17T01:02:55.638Z,-0.80
2022-12-17T01:05:41.421Z,-1.20
2022-12-17T01:08:32.865Z,-1.00
2022-12-17T01:11:22.797Z,-0.80
2022-12-17T01:14:08.173Z,-0.80
2022-12-17T01:17:04.992Z,-0.90
2022-12-17T01:19:50.336Z,-0.90
2022-12-17T01:22:35.684Z,-0.80
2022-12-17T01:25:21.023Z,-0.80
2022-12-17T01:28:09.433Z,-0.80
2022-12-17T01:30:56.208Z,-0.80
2022-12-17T01:33:42.107Z,-0.80
2022-12-17T01:36:27.456Z,-0.80
2022-12-17T01:39:12.934Z,-0.80
2022-12-17T01:41:58.017Z,-0.80
2022-12-17T01:44:58.134Z,-0.80
2022-12-17T01:47:53.273Z,-0.80
2022-12-17T01:51:00.898Z,-0.80
2022-12-17T01:53:53.517Z,-0.80
2022-12-17T01:56:39.489Z,-0.80
2022-12-17T01:59:26.464Z,-0.80
2022-12-17T02:02:11.977Z,-0.80
2022-12-17T02:04:57.734Z,-0.80
2022-12-17T02:08:06.785Z,-1.00
2022-12-17T02:11:04.760Z,-0.90
2022-12-17T02:13:58.322Z,-0.90
2022-12-17T02:17:00.647Z,-0.90
2022-12-17T02:20:26.949Z,-0.90
2022-12-17T02:23:40.350Z,-1.00
2022-12-17T02:26:42.565Z,-1.00
2022-12-17T02:29:27.982Z,-1.00
2022-12-17T02:32:13.274Z,-0.90
2022-12-17T02:35:06.171Z,-0.90
2022-12-17T02:37:51.728Z,-0.90
2022-12-17T02:40:38.782Z,-0.90
2022-12-17T02:43:25.770Z,-0.90
2022-12-17T02:46:14.834Z,-0.80
2022-12-17T02:49:00.592Z,-0.90
2022-12-17T02:51:46.105Z,-0.90
2022-12-17T02:54:31.473Z,-0.80
2022-12-17T02:57:16.908Z,-0.90
2022-12-17T03:00:02.158Z,-0.90
2022-12-17T03:02:47.681Z,-0.90
2022-12-17T03:05:48.034Z,-0.70
2022-12-17T03:08:33.449Z,-1.00
2022-12-17T03:11:18.922Z,-1.00
2022-12-17T03:14:04.307Z,-0.90
2022-12-17T03:16:49.589Z,-0.90
2022-12-17T03:19:34.942Z,-0.90
2022-12-17T03:22:22.905Z,-0.90
2022-12-17T03:25:08.215Z,-0.90
2022-12-17T03:27:53.556Z,-0.90
2022-12-17T03:30:39.267Z,-0.90
2022-12-17T03:33:26.946Z,-1.00
2022-12-17T03:36:14.886Z,-0.90
2022-12-17T03:39:00.263Z,-1.00
2022-12-17T03:41:45.616Z,-1.00
2022-12-17T03:44:30.977Z,-1.00
2022-12-17T03:47:16.278Z,-1.10
2022-12-17T03:50:01.739Z,-0.80
2022-12-17T03:52:47.162Z,-1.10
2022-12-17T03:55:32.446Z,-1.30
2022-12-17T03:58:17.754Z,-1.30
2022-12-17T04:01:03.012Z,-1.20
2022-12-17T04:03:48.394Z,-0.90
2022-12-17T04:06:33.883Z,-1.20
2022-12-17T04:09:19.328Z,-1.20
2022-12-17T04:12:04.731Z,-1.20
2022-12-17T04:14:50.124Z,-1.20
2022-12-17T04:17:35.566Z,-1.00
2022-12-17T04:20:20.820Z,-1.20
2022-12-17T04:23:19.888Z,-1.50
2022-12-17T04:26:05.473Z,-1.20
2022-12-17T04:28:50.472Z,-1.20
2022-12-17T04:31:36.069Z,-0.90
2022-12-17T04:34:21.149Z,-1.20
2022-12-17T04:37:06.699Z,-1.20
2022-12-17T04:39:51.942Z,-1.10
2022-12-17T04:42:37.310Z,-1.20
2022-12-17T04:45:22.818Z,-1.10
2022-12-17T04:48:08.189Z,-1.20
2022-12-17T04:50:53.704Z,-1.20
2022-12-17T04:53:39.374Z,-1.60
2022-12-17T04:56:24.755Z,-1.40
2022-12-17T04:59:10.099Z,-1.50
2022-12-17T05:01:55.493Z,-1.60
2022-12-17T05:04:40.864Z,-1.70
2022-12-17T05:07:27.164Z,-1.70
2022-12-17T05:10:12.457Z,-1.50
2022-12-17T05:12:57.758Z,-1.80
2022-12-17T05:15:51.329Z,-1.40
2022-12-17T05:18:38.089Z,-1.30
2022-12-17T05:21:23.539Z,-0.80
2022-12-17T05:24:08.837Z,-1.10
2022-12-17T05:26:54.147Z,-1.10
2022-12-17T05:29:39.562Z,-1.10
2022-12-17T05:32:24.848Z,-1.10
2022-12-17T05:35:10.279Z,-1.20
2022-12-17T05:37:55.285Z,-1.20
2022-12-17T05:40:40.766Z,-1.20
2022-12-17T05:43:30.112Z,-1.20
2022-12-17T05:46:19.408Z,-1.20
2022-12-17T05:49:04.526Z,-1.20
2022-12-17T05:51:49.954Z,-1.10
2022-12-17T05:54:35.341Z,-1.20
2022-12-17T05:57:20.778Z,-1.20
2022-12-17T06:00:06.186Z,-0.90
2022-12-17T06:02:51.814Z,-1.50
2022-12-17T06:05:36.956Z,-1.60
2022-12-17T06:08:26.755Z,-1.80
2022-12-17T06:11:12.662Z,-1.90
2022-12-17T06:13:58.196Z,-1.90
2022-12-17T06:16:43.412Z,-2.00
2022-12-17T06:19:28.816Z,-2.10
2022-12-17T06:22:14.227Z,-2.20
2022-12-17T06:24:59.494Z,-2.20
2022-12-17T06:27:45.012Z,-2.20
2022-12-17T06:30:30.407Z,-2.10
2022-12-17T06:33:26.548Z,-1.90
2022-12-17T06:36:19.707Z,-1.80
2022-12-17T06:39:06.794Z,-1.90
2022-12-17T06:41:52.251Z,-2.10
2022-12-17T06:44:37.550Z,-2.00
2022-12-17T06:47:22.919Z,-1.90
2022-12-17T06:50:08.346Z,-1.70
2022-12-17T06:52:53.721Z,-1.60
2022-12-17T06:55:39.144Z,-1.50
2022-12-17T06:58:24.516Z,-1.50
2022-12-17T07:01:10.280Z,-1.40
2022-12-17T07:03:55.731Z,-1.50
2022-12-17T07:06:41.179Z,-1.40
2022-12-17T07:09:26.434Z,-1.50
2022-12-17T07:12:11.861Z,-1.50
2022-12-17T07:14:57.331Z,-1.60
2022-12-17T07:17:42.716Z,-1.60
2022-12-17T07:20:28.538Z,-1.60
2022-12-17T07:23:14.969Z,-1.60
2022-12-17T07:26:01.305Z,-1.60
2022-12-17T07:28:46.691Z,-1.60
2022-12-17T07:31:32.147Z,-1.60
2022-12-17T07:34:17.295Z,-1.70
2022-12-17T07:37:02.814Z,-1.90
2022-12-17T07:39:47.914Z,-2.20
2022-12-17T07:42:33.424Z,-2.30
2022-12-17T07:45:18.957Z,-2.30
2022-12-17T07:48:11.552Z,-2.10
2022-12-17T07:50:56.946Z,-2.10
2022-12-17T07:53:43.817Z,-1.90
2022-12-17T07:56:29.272Z,-1.80
2022-12-17T07:59:14.603Z,-1.60
2022-12-17T08:02:00.317Z,-1.50
2022-12-17T08:04:45.479Z,-1.50
2022-12-17T08:07:30.981Z,-1.30
2022-12-17T08:10:16.080Z,-1.40
2022-12-17T08:13:01.439Z,-1.50
2022-12-17T08:15:46.854Z,-1.50
2022-12-17T08:18:32.254Z,-1.50
2022-12-17T08:21:17.706Z,-1.60
2022-12-17T08:24:03.232Z,-1.70
2022-12-17T08:26:48.623Z,-1.90
2022-12-17T08:29:33.907Z,-1.70
2022-12-17T08:32:19.242Z,-1.50
2022-12-17T08:35:04.577Z,-1.40
2022-12-17T08:37:50.073Z,-1.20
2022-12-17T08:40:35.570Z,-1.30
2022-12-17T08:43:20.845Z,-1.20
2022-12-17T08:46:07.306Z,-1.10
2022-12-17T08:48:52.510Z,-1.20
2022-12-17T08:51:38.088Z,-1.20
2022-12-17T08:54:23.474Z,-1.50
2022-12-17T08:57:08.849Z,-1.70
2022-12-17T08:59:54.276Z,-1.70
2022-12-17T09:02:39.892Z,-2.00
2022-12-17T09:05:26.122Z,-1.90
2022-12-17T09:08:25.415Z,-1.60
2022-12-17T09:11:11.617Z,-1.60
2022-12-17T09:13:57.228Z,-1.50
2022-12-17T09:16:43.209Z,-1.40
2022-12-17T09:19:29.427Z,-1.20
2022-12-17T09:22:14.741Z,-1.20
2022-12-17T09:25:00.028Z,-1.40
2022-12-17T09:27:45.315Z,-1.70
2022-12-17T09:30:31.304Z,0.10
2022-12-17T09:33:16.516Z,-1.50
2022-12-17T09:36:02.067Z,-1.90
2022-12-17T09:38:47.449Z,-1.50
2022-12-17T09:42:05.283Z,-1.30
2022-12-17T09:45:05.453Z,-1.40
2022-12-17T09:48:18.853Z,-1.30
2022-12-17T09:51:08.423Z,-1.00
2022-12-17T09:54:19.887Z,-0.90
2022-12-17T09:57:06.527Z,-0.80
2022-12-17T09:59:55.151Z,-0.80
2022-12-17T10:02:45.818Z,-0.80
2022-12-17T10:05:41.442Z,-0.80
2022-12-17T10:08:31.892Z,-0.90
2022-12-17T10:11:34.420Z,-0.90
2022-12-17T10:14:21.581Z,-0.90
2022-12-17T10:17:11.677Z,-0.90
2022-12-17T10:20:00.101Z,-0.90
2022-12-17T10:22:45.569Z,-1.00
2022-12-17T10:25:48.905Z,-1.20
2022-12-17T10:28:40.575Z,-1.10
2022-12-17T10:31:28.670Z,-1.30
2022-12-17T10:34:16.027Z,-1.10
2022-12-17T10:37:07.080Z,-0.90
2022-12-17T10:39:52.262Z,-1.20
2022-12-17T10:42:46.163Z,-1.20
2022-12-17T10:45:52.043Z,-1.20
2022-12-17T10:48:41.739Z,-0.90
2022-12-17T10:51:55.487Z,-0.80
2022-12-17T10:54:51.103Z,-0.70
2022-12-17T10:57:54.455Z,-0.70
2022-12-17T11:00:47.564Z,-1.00
2022-12-17T11:03:48.953Z,-1.00
2022-12-17T11:06:53.648Z,-0.80
2022-12-17T11:10:09.427Z,-1.20
2022-12-17T11:13:04.605Z,-1.20
2022-12-17T11:15:59.231Z,-1.00
2022-12-17T11:18:53.996Z,-1.10
2022-12-17T11:21:44.047Z,-1.40
2022-12-17T11:24:32.918Z,-1.30
2022-12-17T11:27:22.331Z,-1.10
2022-12-17T11:30:07.745Z,-0.90
2022-12-17T11:33:22.571Z,-0.90
2022-12-17T11:36:33.796Z,-0.80
2022-12-17T11:39:34.106Z,-0.70
2022-12-17T11:42:35.318Z,-0.70
2022-12-17T11:45:51.199Z,-0.90
2022-12-17T11:49:16.011Z,-0.30
2022-12-17T11:52:30.024Z,-1.30
2022-12-17T11:55:36.402Z,-1.50
2022-12-17T11:58:25.029Z,-1.80
2022-12-17T12:01:37.212Z,-1.80
2022-12-17T12:05:00.014Z,-1.70
2022-12-17T12:08:11.976Z,-1.80
2022-12-17T12:11:32.467Z,-2.00
2022-12-17T12:14:38.059Z,-1.90
2022-12-17T12:17:56.427Z,-2.00
2022-12-17T12:20:52.362Z,-1.90
2022-12-17T12:23:53.539Z,-1.70
2022-12-17T12:26:42.853Z,-1.60
2022-12-17T12:29:46.314Z,-1.40
2022-12-17T12:32:52.996Z,-1.30
2022-12-17T12:35:42.561Z,-1.20
2022-12-17T12:38:45.802Z,-1.10
2022-12-17T12:41:57.257Z,-1.10
2022-12-17T12:44:59.350Z,-1.10
2022-12-17T12:48:02.484Z,-1.20
2022-12-17T12:51:14.156Z,-1.00
2022-12-17T12:53:59.450Z,-1.00
2022-12-17T12:56:55.647Z,-1.20
2022-12-17T12:59:55.460Z,-1.10
2022-12-17T13:02:49.422Z,-1.60
2022-12-17T13:05:51.427Z,-1.50
2022-12-17T13:08:23.739Z,-1.50
2022-12-17T13:10:54.047Z,-1.60
2022-12-17T13:13:55.699Z,-1.90
2022-12-17T13:16:46.411Z,-1.90
2022-12-17T13:19:36.078Z,-1.70
2022-12-17T13:22:23.375Z,-1.50
2022-12-17T13:24:53.722Z,-1.30
2022-12-17T13:27:35.867Z,-1.30
2022-12-17T13:30:22.970Z,-1.30
2022-12-17T13:33:26.923Z,-1.20
2022-12-17T13:36:21.630Z,-1.20
2022-12-17T13:39:25.020Z,-1.10
2022-12-17T13:41:55.654Z,-1.10
2022-12-17T13:44:29.825Z,-1.10
2022-12-17T13:46:56.500Z,-1.10
2022-12-17T13:49:28.605Z,-1.10
2022-12-17T13:52:02.502Z,-1.10
2022-12-17T13:54:32.245Z,-1.20
2022-12-17T13:57:16.545Z,-1.30
2022-12-17T13:59:53.986Z,-1.40
2022-12-17T14:02:37.301Z,-1.60
2022-12-17T14:05:08.067Z,-1.90
2022-12-17T14:07:38.971Z,-2.00
2022-12-17T14:10:14.669Z,-1.90
2022-12-17T14:12:44.121Z,-1.90
2022-12-17T14:15:26.671Z,-1.70
2022-12-17T14:17:54.629Z,-1.60
2022-12-17T14:20:25.333Z,-1.70
2022-12-17T14:23:14.345Z,-1.60
2022-12-17T14:25:44.257Z,-1.80
2022-12-17T14:28:29.900Z,-1.70
2022-12-17T14:31:29.804Z,-1.60
2022-12-17T14:34:08.871Z,-1.70
2022-12-17T14:36:38.589Z,-1.90
2022-12-17T14:39:17.220Z,-1.80
2022-12-17T14:42:02.751Z,-1.80
2022-12-17T14:44:31.011Z,-2.00
2022-12-17T14:47:17.893Z,-2.20
2022-12-17T14:50:13.869Z,-2.30
2022-12-17T14:52:47.897Z,-2.50
2022-12-17T14:55:35.295Z,-2.30
2022-12-17T14:58:15.668Z,-2.10
2022-12-17T15:00:55.795Z,-1.90
2022-12-17T15:03:28.601Z,-1.80
2022-12-17T15:06:00.399Z,-1.70
2022-12-17T15:08:36.779Z,-1.60
2022-12-17T15:11:03.871Z,-1.80
2022-12-17T15:13:30.499Z,-1.90
2022-12-17T15:15:57.657Z,-1.80
2022-12-17T15:18:24.594Z,-1.80
2022-12-17T15:20:51.303Z,-1.80
2022-12-17T15:23:20.299Z,-1.80
2022-12-17T15:25:49.470Z,-1.80
2022-12-17T15:28:17.877Z,-1.80
2022-12-17T15:30:45.991Z,-1.80
2022-12-17T15:33:13.180Z,-1.80
2022-12-17T15:35:40.586Z,-1.80
2022-12-17T15:38:07.500Z,-1.90
2022-12-17T15:40:36.148Z,-1.90
2022-12-17T15:43:11.815Z,-2.10
2022-12-17T15:45:43.505Z,-2.20
2022-12-17T15:48:12.160Z,-2.30
2022-12-17T15:50:38.911Z,-2.40
2022-12-17T15:53:05.979Z,-2.50
2022-12-17T15:55:32.591Z,-2.40
2022-12-17T15:57:59.320Z,-2.20
2022-12-17T16:00:26.111Z,-2.40
2022-12-17T16:02:52.960Z,-2.40
2022-12-17T16:05:20.894Z,-2.40
2022-12-17T16:07:47.643Z,-2.30
2022-12-17T16:10:14.743Z,-2.40
2022-12-17T16:12:41.677Z,-2.50
2022-12-17T16:15:10.062Z,-2.50
2022-12-17T16:17:36.733Z,-2.50
2022-12-17T16:20:05.489Z,-2.30
2022-12-17T16:22:32.524Z,-2.30
2022-12-17T16:24:59.293Z,-2.20
2022-12-17T16:27:25.898Z,-2.10
2022-12-17T16:29:52.508Z,-1.90
2022-12-17T16:32:19.717Z,-1.90
2022-12-17T16:34:46.786Z,-1.60
2022-12-17T16:37:13.420Z,-1.70
2022-12-17T16:39:40.031Z,-1.80
2022-12-17T16:42:06.926Z,-1.90
2022-12-17T16:44:33.658Z,-2.20
2022-12-17T16:47:00.319Z,-1.90
2022-12-17T16:49:27.028Z,-2.00
2022-12-17T16:51:55.564Z,-2.00
2022-12-17T16:54:27.058Z,-2.30
2022-12-17T16:56:54.516Z,-2.30
2022-12-17T16:59:21.914Z,-2.80
2022-12-17T17:01:50.192Z,-2.60
2022-12-17T17:04:19.389Z,-2.70
2022-12-17T17:06:48.688Z,-2.30
2022-12-17T17:09:16.285Z,-2.30
2022-12-17T17:11:45.836Z,-2.20
2022-12-17T17:14:16.602Z,-2.20
2022-12-17T17:16:43.185Z,-2.10
2022-12-17T17:19:09.810Z,-2.00
2022-12-17T17:21:38.753Z,-1.90
2022-12-17T17:24:20.381Z,-1.90
2022-12-17T17:26:48.460Z,-2.00
2022-12-17T17:29:15.112Z,-1.90
2022-12-17T17:34:28.594Z,-2.10
2022-12-17T17:36:55.159Z,-2.10
2022-12-17T17:39:21.766Z,-1.90
2022-12-17T17:41:48.716Z,-2.10
2022-12-17T17:44:15.406Z,-2.10
2022-12-17T17:46:42.349Z,-2.10
2022-12-17T17:49:10.484Z,-2.20
2022-12-17T17:54:28.158Z,-2.30
2022-12-17T17:56:54.739Z,-2.40
2022-12-17T17:59:25.154Z,-2.60
2022-12-17T18:01:56.081Z,-2.50
2022-12-17T18:04:24.302Z,-2.10
2022-12-17T18:07:23.238Z,-2.40
2022-12-17T18:09:37.530Z,-2.40
2022-12-17T18:12:24.285Z,-2.40
2022-12-17T18:15:13.845Z,-2.30
2022-12-17T18:17:37.599Z,-2.30
2022-12-17T18:20:04.857Z,-2.20
2022-12-17T18:22:31.426Z,-2.20
2022-12-17T18:24:58.035Z,-2.10
2022-12-17T18:27:24.608Z,-2.20
2022-12-17T18:29:51.162Z,-2.20
2022-12-17T18:32:17.741Z,-2.20
2022-12-17T18:34:44.385Z,-2.20
2022-12-17T18:37:10.971Z,-2.30
2022-12-17T18:39:37.598Z,-2.30
2022-12-17T18:42:23.210Z,-2.70
2022-12-17T18:44:49.924Z,-2.40
2022-12-17T18:47:16.762Z,-3.00
2022-12-17T18:49:43.577Z,-2.10
2022-12-17T18:52:16.440Z,-2.60
2022-12-17T18:54:44.214Z,-2.60
2022-12-17T18:57:11.215Z,-2.60
2022-12-17T18:59:38.525Z,-2.60
2022-12-17T19:02:05.341Z,-2.70
2022-12-17T19:04:32.973Z,-2.70
2022-12-17T19:06:59.813Z,-2.70
2022-12-17T19:09:31.201Z,-2.80
2022-12-17T19:11:58.462Z,-2.90
2022-12-17T19:14:25.813Z,-2.80
2022-12-17T19:16:55.547Z,-3.30
2022-12-17T19:19:22.838Z,-2.80
2022-12-17T19:21:52.006Z,-2.80
2022-12-17T19:24:19.486Z,-2.70
2022-12-17T19:26:46.282Z,-2.70
2022-12-17T19:29:14.409Z,-2.70
2022-12-17T19:31:41.206Z,-2.70
2022-12-17T19:34:11.926Z,-2.70
2022-12-17T19:36:39.913Z,-2.70
2022-12-17T19:39:11.524Z,-2.70
2022-12-17T19:41:38.313Z,-3.00
2022-12-17T19:44:07.701Z,-3.20
2022-12-17T19:46:35.842Z,-3.10
2022-12-17T19:49:02.964Z,-3.20
2022-12-17T19:51:31.365Z,-3.20
2022-12-17T19:54:03.195Z,-2.90
2022-12-17T19:56:35.743Z,-3.20
2022-12-17T19:59:06.852Z,-2.90
2022-12-17T20:01:43.336Z,-3.10
2022-12-17T20:04:12.726Z,-3.00
2022-12-17T20:06:42.474Z,-3.00
2022-12-17T20:09:09.149Z,-3.10
2022-12-17T20:11:38.905Z,-3.10
2022-12-17T20:14:23.751Z,-3.10
2022-12-17T20:16:53.028Z,-3.10
2022-12-17T20:19:22.212Z,-3.20
2022-12-17T20:21:49.327Z,-3.80
2022-12-17T20:24:16.888Z,-3.30
2022-12-17T20:26:45.140Z,-3.30
2022-12-17T20:29:12.111Z,-3.30
2022-12-17T20:31:41.562Z,-3.30
2022-12-17T20:34:13.708Z,-3.10
2022-12-17T20:36:40.549Z,-3.20
2022-12-17T20:39:08.466Z,-3.30
2022-12-17T20:41:36.350Z,-2.40
2022-12-17T20:44:06.522Z,-3.70
2022-12-17T20:46:33.450Z,-3.40
2022-12-17T20:49:03.182Z,-3.90
2022-12-17T20:51:30.686Z,-3.60
2022-12-17T20:53:59.532Z,-3.60
2022-12-17T20:56:29.549Z,-3.80
2022-12-17T20:58:58.967Z,-3.60
2022-12-17T21:01:28.103Z,-3.70
2022-12-17T21:03:56.304Z,-3.30
2022-12-17T21:06:32.490Z,-3.70
2022-12-17T21:08:59.275Z,-3.70
2022-12-17T21:11:28.441Z,-3.70
2022-12-17T21:13:55.623Z,-3.70
2022-12-17T21:16:28.735Z,-3.60
2022-12-17T21:18:56.955Z,-3.60
2022-12-17T21:21:26.574Z,-3.50
2022-12-17T21:23:53.846Z,-3.40
2022-12-17T21:26:23.295Z,-3.40
2022-12-17T21:28:52.290Z,-3.40
2022-12-17T21:31:29.583Z,-3.60
2022-12-17T21:33:59.577Z,-3.70
2022-12-17T21:36:28.568Z,-3.10
2022-12-17T21:38:55.659Z,-3.50
2022-12-17T21:41:24.541Z,-3.40
2022-12-17T21:43:59.864Z,-3.30
2022-12-17T21:46:28.179Z,-3.40
2022-12-17T21:48:59.264Z,-3.40
2022-12-17T21:51:26.347Z,-3.60
2022-12-17T21:53:58.603Z,-4.30
2022-12-17T21:56:29.147Z,-3.90
2022-12-17T21:59:00.832Z,-3.90
2022-12-17T22:01:31.777Z,-3.90
2022-12-17T22:04:01.051Z,-4.00
2022-12-17T22:06:34.292Z,-4.00
2022-12-17T22:09:09.068Z,-4.00
2022-12-17T22:11:39.608Z,-3.80
2022-12-17T22:14:09.044Z,-3.70
2022-12-17T22:16:43.415Z,-3.60
2022-12-17T22:19:12.524Z,-3.60
2022-12-17T22:21:42.286Z,-3.60
2022-12-17T22:24:17.221Z,-3.50
2022-12-17T22:26:44.040Z,-3.40
2022-12-17T22:29:10.825Z,-3.40
2022-12-17T22:31:56.329Z,-3.50
2022-12-17T22:35:49.045Z,-3.70
2022-12-17T22:39:26.641Z,-3.90
2022-12-17T22:42:49.375Z,-4.20
2022-12-17T22:44:46.466Z,-4.30
2022-12-17T22:45:49.891Z,-4.40
2022-12-17T22:48:16.765Z,-4.50
2022-12-17T22:50:51.667Z,-4.40
2022-12-17T22:53:30.527Z,-4.40
2022-12-17T22:56:15.861Z,-4.50
2022-12-17T22:58:51.679Z,-4.30
2022-12-17T23:01:22.904Z,-4.10
2022-12-17T23:03:55.704Z,-4.00
2022-12-17T23:06:22.629Z,-3.90
2022-12-17T23:08:49.889Z,-3.80
2022-12-17T23:11:19.925Z,-3.80
2022-12-17T23:13:46.696Z,-3.70
2022-12-17T23:16:14.221Z,-3.90
2022-12-17T23:18:43.172Z,-4.20
2022-12-17T23:21:13.197Z,-3.70
2022-12-17T23:23:40.525Z,-3.20
2022-12-17T23:26:14.153Z,-3.70
2022-12-17T23:28:41.491Z,-3.70
2022-12-17T23:31:19.230Z,-3.70
2022-12-17T23:33:46.650Z,-3.90
2022-12-17T23:36:19.662Z,-3.90
2022-12-17T23:38:47.538Z,-4.00
2022-12-17T23:41:17.094Z,-4.00
2022-12-17T23:43:43.929Z,-4.20
2022-12-17T23:46:11.406Z,-4.30
2022-12-17T23:48:45.633Z,-4.20
2022-12-17T23:51:14.728Z,-4.10
2022-12-17T23:53:42.631Z,-4.00
2022-12-17T23:56:17.516Z,-4.00
2022-12-17T23:58:45.810Z,-3.90
